This is the latest recevied weather packets stored in our database for station/object W1MWS-13. If no packets are shown the sender has not sent any weather packets the latest 10 day(s).
| Time | Temp. | Humidity | Pressure | Rain* | Wind** | Luminosity | Snow |
|---|---|---|---|---|---|---|---|
| 1777646313 | 12.22° C | 61% | 1010.5 hPa | 0 mm | - | - | - |
| 1777646023 | - | - | 1010.5 hPa | 0 mm | - | - | - |
| 1777645707 | 11.67° C | 62% | 1010.4 hPa | 0 mm | - | - | - |
| 1777645117 | 11.67° C | 62% | 1010.2 hPa | 0 mm | - | - | - |
| 1777644798 | 11.67° C | 63% | 1010.2 hPa | 0 mm | - | - | - |
| 1777643908 | 12.22° C | 62% | 1010.2 hPa | 0 mm | - | - | - |
| 1777642097 | 11.11° C | 65% | 1010.4 hPa | 0 mm | - | - | - |
| 1777640295 | 10.56° C | 68% | 1010.5 hPa | 0 mm | - | - | - |
| 1777638203 | 10° C | 75% | 1010.5 hPa | 0 mm | - | - | - |
| 1777634596 | 7.78° C | 87% | 1010.2 hPa | 0 mm | - | - | - |
| 1777634000 | 7.78° C | 88% | 1010 hPa | 0 mm | - | - | - |
| 1777633737 | 7.78° C | 89% | 1010 hPa | 0 mm | - | - | - |
| 1777632802 | 7.22° C | 91% | 1009.9 hPa | 0 mm | - | - | - |
| 1777632199 | 7.22° C | 92% | 1009.8 hPa | 0 mm | - | - | - |
| 1777631027 | 6.11° C | 97% | 1009.7 hPa | 0 mm | - | - | - |
| 1777628297 | 6.11° C | 96% | 1009.6 hPa | 0 mm | - | - | - |
| 1777627102 | 6.67° C | 96% | 1009.3 hPa | 0 mm | - | - | - |
| 1777625303 | 7.22° C | 95% | 1009.3 hPa | 0 mm | - | - | - |
| 1777624149 | 7.22° C | 96% | 1008.9 hPa | 0 mm | - | - | - |
| 1777623800 | 7.22° C | 95% | 1008.9 hPa | 0 mm | - | - | - |
| 1777623509 | 7.22° C | 95% | 1008.7 hPa | 0 mm | - | - | - |
| 1777623200 | 7.22° C | 94% | 1008.7 hPa | 0 mm | - | - | - |
| 1777622000 | 7.78° C | 90% | 1008.6 hPa | 0 mm | - | - | - |
| 1777621103 | 8.33° C | 89% | 1008.6 hPa | 0 mm | - | - | - |
| 1777616005 | 8.89° C | 88% | 1008.3 hPa | 0 mm | - | - | - |
* Rain latest hour (hover to see other rain measurements)
** Current wind speed in m/s (hover to see current wind gust speed)